Time;durP1;ratioP1;P1;durP2;ratioP2;P2;SDS_P1;SDS_P2;PMS_P1;PMS_P2;Temp;Humidity;BMP_temperature;BMP_pressure;BME280_temperature;BME280_humidity;BME280_pressure;Samples;Min_cycle;Max_cycle;Signal;HPM_P1;HPM_P2
2023/08/13 00:01:51;;;;;;;;;;;;;;;17.12;80.63;101663.19;5006638;28;19951;-55
2023/08/13 00:04:16;;;;;;;;;;;;;;;17.12;81.01;101663.19;5014001;28;19909;-55
2023/08/13 00:06:42;;;;;;;;;;;;;;;17.09;81.21;101657.91;5022621;28;19976;-55
2023/08/13 00:09:07;;;;;;;;;;;;;;;17.06;81.35;101654.34;5024177;28;19916;-55
2023/08/13 00:11:32;;;;;;;;;;;;;;;17.04;81.41;101654.31;5022680;28;19909;-54
2023/08/13 00:13:58;;;;;;;;;;;;;;;17.03;81.56;101655.19;5023486;28;19952;-55
2023/08/13 00:16:23;;;;;;;;;;;;;;;17.03;81.94;101649.91;5024350;28;20048;-54
2023/08/13 00:18:48;;;;;;;;;;;;;;;16.99;82.70;101656.91;5023822;28;20032;-54
2023/08/13 00:21:13;;;;;;;;;;;;;;;16.94;81.90;101652.47;5021917;28;20113;-55
2023/08/13 00:23:39;;;;;;;;;;;;;;;16.89;82.91;101654.16;5032240;28;19923;-55
2023/08/13 00:26:04;;;;;;;;;;;;;;;16.86;82.80;101647.09;5020551;28;21152;-55
2023/08/13 00:28:30;;;;;;;;;;;;;;;16.86;82.64;101650.59;5021175;28;19909;-55
2023/08/13 00:30:55;;;;;;;;;;;;;;;16.86;82.84;101652.38;5021852;28;19920;-55
2023/08/13 00:33:20;;;;;;;;;;;;;;;16.85;83.48;101646.19;5010902;28;19909;-54
2023/08/13 00:35:45;;;;;;;;;;;;;;;16.84;83.44;101651.44;5023426;28;19936;-55
2023/08/13 00:38:11;;;;;;;;;;;;;;;16.81;83.21;101646.16;5025335;28;19969;-55
2023/08/13 00:40:36;;;;;;;;;;;;;;;16.77;83.32;101645.25;5021484;28;19909;-54
2023/08/13 00:43:02;;;;;;;;;;;;;;;16.72;83.75;101649.56;5024154;28;20075;-54
2023/08/13 00:45:28;;;;;;;;;;;;;;;16.67;84.02;101646.91;5020905;28;20239;-54
2023/08/13 00:47:56;;;;;;;;;;;;;;;16.61;83.74;101645.94;5022205;28;19916;-54
2023/08/13 00:50:21;;;;;;;;;;;;;;;16.58;84.62;101643.28;5025248;28;20147;-54
2023/08/13 00:52:47;;;;;;;;;;;;;;;16.55;84.48;101635.34;5023080;28;20182;-55
2023/08/13 00:55:12;;;;;;;;;;;;;;;16.52;84.90;101633.56;5026998;28;20068;-56
2023/08/13 00:57:37;;;;;;;;;;;;;;;16.52;84.98;101641.44;5022586;28;20157;-55
2023/08/13 01:00:06;;;;;;;;;;;;;;;16.51;84.67;101642.31;5023647;28;20049;-54
2023/08/13 01:02:31;;;;;;;;;;;;;;;16.48;85.84;101637.00;5019795;28;19909;-55
2023/08/13 01:04:56;;;;;;;;;;;;;;;16.47;85.26;101633.50;5011328;28;19968;-55
2023/08/13 01:07:31;;;;;;;;;;;;;;;16.48;85.22;101645.81;5020706;28;19925;-55
2023/08/13 01:10:13;;;;;;;;;;;;;;;16.48;85.20;101644.91;5024734;28;20379;-55
2023/08/13 01:12:48;;;;;;;;;;;;;;;16.45;84.97;101636.97;5027688;28;19936;-55
2023/08/13 01:15:17;;;;;;;;;;;;;;;16.42;85.22;101643.06;5027519;28;19909;-55
2023/08/13 01:17:44;;;;;;;;;;;;;;;16.40;85.54;101639.56;5027579;28;19909;-55
2023/08/13 01:20:10;;;;;;;;;;;;;;;16.41;85.64;101646.59;5028360;28;19909;-55
2023/08/13 01:22:36;;;;;;;;;;;;;;;16.37;85.57;101647.41;5029482;28;20051;-54
2023/08/13 01:25:02;;;;;;;;;;;;;;;16.32;86.63;101642.09;5028054;28;20167;-55
2023/08/13 01:27:32;;;;;;;;;;;;;;;16.28;87.34;101645.56;5033083;28;19956;-54
2023/08/13 01:30:00;;;;;;;;;;;;;;;16.21;86.61;101643.72;5024843;28;19924;-54
2023/08/13 01:32:28;;;;;;;;;;;;;;;16.17;87.25;101641.91;5033487;28;19909;-54
2023/08/13 01:34:55;;;;;;;;;;;;;;;16.15;86.78;101641.88;5024096;28;19917;-55
2023/08/13 01:37:20;;;;;;;;;;;;;;;16.14;86.16;101642.72;5022939;28;19913;-55
2023/08/13 01:39:45;;;;;;;;;;;;;;;16.11;87.59;101645.31;5020199;28;20194;-55
2023/08/13 01:42:11;;;;;;;;;;;;;;;16.13;85.99;101646.25;5028614;28;20148;-54
2023/08/13 01:44:37;;;;;;;;;;;;;;;16.09;86.45;101649.69;5021136;28;21084;-54
2023/08/13 01:47:02;;;;;;;;;;;;;;;16.08;86.40;101647.91;5020438;28;20063;-55
2023/08/13 01:49:27;;;;;;;;;;;;;;;16.09;86.92;101654.03;5022683;28;19940;-54
2023/08/13 01:51:53;;;;;;;;;;;;;;;16.08;86.58;101649.66;5023601;28;19910;-55
2023/08/13 01:54:18;;;;;;;;;;;;;;;16.06;87.23;101647.03;5021811;28;20162;-55
2023/08/13 01:56:43;;;;;;;;;;;;;;;16.07;86.85;101645.25;5022360;28;20317;-55
2023/08/13 01:59:08;;;;;;;;;;;;;;;16.07;86.26;101648.75;5020992;28;19936;-55
2023/08/13 02:01:33;;;;;;;;;;;;;;;16.06;87.06;101649.66;5020057;28;20010;-55
2023/08/13 02:03:59;;;;;;;;;;;;;;;16.03;86.85;101649.56;5020889;28;19925;-55
2023/08/13 02:06:24;;;;;;;;;;;;;;;16.02;86.62;101653.09;5021053;28;20261;-55
2023/08/13 02:08:49;;;;;;;;;;;;;;;16.01;86.57;101656.56;5021862;28;20059;-55
2023/08/13 02:11:14;;;;;;;;;;;;;;;15.97;86.84;101644.25;5022314;28;19920;-55
2023/08/13 02:13:39;;;;;;;;;;;;;;;15.93;87.23;101645.97;5023405;28;20062;-54
2023/08/13 02:16:05;;;;;;;;;;;;;;;15.94;87.33;101649.47;5025975;28;19910;-55
2023/08/13 02:18:30;;;;;;;;;;;;;;;15.91;87.33;101644.16;5012431;28;19910;-55
2023/08/13 02:20:56;;;;;;;;;;;;;;;15.88;87.65;101637.13;5029519;28;19913;-55
2023/08/13 02:23:21;;;;;;;;;;;;;;;15.88;87.33;101642.38;5035132;28;20504;-55
2023/08/13 02:25:46;;;;;;;;;;;;;;;15.85;88.17;101639.69;5035147;28;19909;-55
2023/08/13 02:28:11;;;;;;;;;;;;;;;15.84;88.10;101637.06;5038558;28;19910;-55
2023/08/13 02:30:37;;;;;;;;;;;;;;;15.84;88.03;101637.94;5025902;28;19941;-55
2023/08/13 02:33:02;;;;;;;;;;;;;;;15.82;88.38;101642.28;5025814;28;19979;-55
2023/08/13 02:35:27;;;;;;;;;;;;;;;15.80;88.49;101639.63;5030561;28;19908;-55
2023/08/13 02:37:53;;;;;;;;;;;;;;;15.78;88.03;101633.47;5029739;28;19909;-54
2023/08/13 02:40:18;;;;;;;;;;;;;;;15.76;88.63;101629.91;5028099;28;20159;-55
2023/08/13 02:42:43;;;;;;;;;;;;;;;15.75;89.54;101624.63;5024814;28;19917;-55
2023/08/13 02:45:08;;;;;;;;;;;;;;;15.74;88.59;101625.47;5026168;28;19929;-55
2023/08/13 02:47:34;;;;;;;;;;;;;;;15.75;89.74;101629.88;5030564;28;19913;-55
2023/08/13 02:49:59;;;;;;;;;;;;;;;15.74;89.82;101634.28;5029459;28;19917;-55
2023/08/13 02:52:24;;;;;;;;;;;;;;;15.74;89.75;101631.66;5025231;28;19917;-55
2023/08/13 02:54:49;;;;;;;;;;;;;;;15.73;88.97;101621.97;5035183;28;19909;-55
2023/08/13 02:57:14;;;;;;;;;;;;;;;15.70;89.74;101619.31;5032111;28;19955;-55
2023/08/13 02:59:40;;;;;;;;;;;;;;;15.68;88.82;101628.91;5033839;28;19910;-55
2023/08/13 03:02:05;;;;;;;;;;;;;;;15.65;88.91;101629.72;5023926;28;19910;-55
2023/08/13 03:04:30;;;;;;;;;;;;;;;15.64;89.27;101619.19;5021387;28;19932;-55
2023/08/13 03:06:55;;;;;;;;;;;;;;;15.60;90.46;101615.66;5028163;28;19951;-54
2023/08/13 03:09:21;;;;;;;;;;;;;;;15.59;89.89;101626.16;5026081;28;19909;-55
2023/08/13 03:11:47;;;;;;;;;;;;;;;15.58;89.94;101624.38;5026537;28;20000;-55
2023/08/13 03:14:12;;;;;;;;;;;;;;;15.57;89.80;101623.50;5037555;28;19939;-54
2023/08/13 03:16:37;;;;;;;;;;;;;;;15.61;89.85;101632.28;5021924;28;20067;-55
2023/08/13 03:19:02;;;;;;;;;;;;;;;15.61;90.17;101620.06;5035621;28;19968;-55
2023/08/13 03:21:28;;;;;;;;;;;;;;;15.61;89.86;101630.56;5028887;28;19909;-55
2023/08/13 03:23:53;;;;;;;;;;;;;;;15.61;90.08;101627.03;5025461;28;19992;-55
2023/08/13 03:26:18;;;;;;;;;;;;;;;15.58;90.12;101624.38;5031348;28;20064;-54
2023/08/13 03:28:43;;;;;;;;;;;;;;;15.55;89.43;101621.69;5025784;28;19905;-54
2023/08/13 03:31:09;;;;;;;;;;;;;;;15.50;89.79;101621.63;5026861;28;19909;-55
2023/08/13 03:33:34;;;;;;;;;;;;;;;15.46;89.73;101625.94;5027112;28;19919;-54
2023/08/13 03:35:59;;;;;;;;;;;;;;;15.42;90.31;101626.75;5025353;28;19948;-55
2023/08/13 03:38:24;;;;;;;;;;;;;;;15.43;90.43;101625.03;5021598;28;19968;-55
2023/08/13 03:40:53;;;;;;;;;;;;;;;15.41;90.27;101622.38;5009318;28;20186;-55
2023/08/13 03:43:18;;;;;;;;;;;;;;;15.38;90.89;101631.94;5024480;28;19913;-55
2023/08/13 03:45:43;;;;;;;;;;;;;;;15.36;90.93;101624.03;5030918;28;19918;-54
2023/08/13 03:48:08;;;;;;;;;;;;;;;15.33;90.53;101623.97;5022415;28;20159;-55
2023/08/13 03:50:33;;;;;;;;;;;;;;;15.33;91.37;101618.72;5022681;28;19909;-54
2023/08/13 03:52:59;;;;;;;;;;;;;;;15.30;91.36;101622.19;5024337;28;19909;-55
2023/08/13 03:55:24;;;;;;;;;;;;;;;15.26;90.79;101622.09;5022553;28;19916;-55
2023/08/13 03:57:51;;;;;;;;;;;;;;;15.25;90.69;101628.22;5023550;28;20082;-54
2023/08/13 04:00:16;;;;;;;;;;;;;;;15.23;91.51;101628.19;5022319;28;19913;-55
2023/08/13 04:02:46;;;;;;;;;;;;;;;15.20;90.66;101630.75;5020876;28;19922;-54
2023/08/13 04:05:11;;;;;;;;;;;;;;;15.12;91.64;101629.75;5022666;28;19971;-55
2023/08/13 04:07:36;;;;;;;;;;;;;;;15.08;91.42;101631.44;5023130;28;20206;-55
2023/08/13 04:10:01;;;;;;;;;;;;;;;15.10;93.82;101642.84;5023754;28;20190;-55
2023/08/13 04:12:26;;;;;;;;;;;;;;;15.09;92.82;101641.09;5024433;28;19924;-55
2023/08/13 04:14:52;;;;;;;;;;;;;;;15.12;93.03;101645.50;5023716;28;20121;-55
2023/08/13 04:17:17;;;;;;;;;;;;;;;15.11;92.25;101644.63;5027527;28;19952;-55
2023/08/13 04:19:42;;;;;;;;;;;;;;;15.12;91.51;101640.25;5034245;28;19906;-55
2023/08/13 04:22:07;;;;;;;;;;;;;;;15.11;92.11;101638.50;5020982;28;19977;-54
2023/08/13 04:24:32;;;;;;;;;;;;;;;15.11;92.36;101636.72;5030770;28;19913;-55
2023/08/13 04:26:58;;;;;;;;;;;;;;;15.10;92.27;101637.59;5023809;28;19932;-55
2023/08/13 04:29:23;;;;;;;;;;;;;;;15.12;92.20;101635.88;5023336;28;19909;-55
2023/08/13 04:31:48;;;;;;;;;;;;;;;15.13;92.53;101634.13;5027016;28;20169;-55
2023/08/13 04:34:13;;;;;;;;;;;;;;;15.15;92.30;101635.06;5023411;28;20243;-55
2023/08/13 04:36:40;;;;;;;;;;;;;;;15.16;92.42;101634.19;5020979;28;19931;-55
2023/08/13 04:39:06;;;;;;;;;;;;;;;15.16;92.45;101635.94;5027524;28;20190;-55
2023/08/13 04:41:31;;;;;;;;;;;;;;;15.11;93.26;101630.63;5022495;28;19940;-55
2023/08/13 04:43:56;;;;;;;;;;;;;;;15.09;93.67;101630.59;5026373;28;19996;-54
2023/08/13 04:46:21;;;;;;;;;;;;;;;15.09;93.53;101627.06;5023496;28;20050;-55
2023/08/13 04:48:47;;;;;;;;;;;;;;;15.09;93.38;101629.69;5021201;28;20210;-55
2023/08/13 04:51:13;;;;;;;;;;;;;;;15.08;93.70;101641.94;5029402;28;19915;-55
2023/08/13 04:53:38;;;;;;;;;;;;;;;15.06;94.11;101643.66;5023681;28;19949;-55
2023/08/13 04:56:05;;;;;;;;;;;;;;;15.07;93.49;101648.03;5026733;28;19909;-54
2023/08/13 04:58:30;;;;;;;;;;;;;;;15.08;93.86;101651.56;5020361;28;19951;-54
2023/08/13 05:00:55;;;;;;;;;;;;;;;15.08;94.93;101641.94;5025985;28;19980;-55
2023/08/13 05:03:20;;;;;;;;;;;;;;;15.10;94.79;101650.72;5019992;28;20209;-55
2023/08/13 05:05:45;;;;;;;;;;;;;;;15.11;95.15;101641.13;5022691;28;19940;-55
2023/08/13 05:08:11;;;;;;;;;;;;;;;15.12;95.53;101635.88;5026790;28;19984;-55
2023/08/13 05:10:36;;;;;;;;;;;;;;;15.15;94.82;101634.16;5027692;28;20016;-55
2023/08/13 05:13:01;;;;;;;;;;;;;;;15.16;95.36;101630.69;5030724;28;20118;-54
2023/08/13 05:15:26;;;;;;;;;;;;;;;15.17;95.77;101627.22;5013143;28;20060;-54
2023/08/13 05:17:52;;;;;;;;;;;;;;;15.21;95.73;101623.78;5019977;28;19921;-55
2023/08/13 05:20:17;;;;;;;;;;;;;;;15.23;95.65;101628.19;5023577;28;20152;-55
2023/08/13 05:22:42;;;;;;;;;;;;;;;15.26;95.85;101636.09;5021508;28;19980;-55
2023/08/13 05:25:07;;;;;;;;;;;;;;;15.26;95.84;101637.84;5029670;28;19917;-55
2023/08/13 05:27:32;;;;;;;;;;;;;;;15.27;95.50;101644.88;5028850;28;19940;-54
2023/08/13 05:29:58;;;;;;;;;;;;;;;15.29;96.49;101645.78;5029937;28;19917;-55
2023/08/13 05:32:24;;;;;;;;;;;;;;;15.27;97.02;101644.88;5027147;28;19913;-55
2023/08/13 05:34:49;;;;;;;;;;;;;;;15.28;95.78;101642.28;5028830;28;19908;-55
2023/08/13 05:37:15;;;;;;;;;;;;;;;15.28;96.09;101646.66;5025901;28;19960;-55
2023/08/13 05:39:40;;;;;;;;;;;;;;;15.28;96.87;101647.53;5034898;28;20206;-55
2023/08/13 05:42:05;;;;;;;;;;;;;;;15.29;96.36;101651.03;5024081;28;19913;-55
2023/08/13 05:44:30;;;;;;;;;;;;;;;15.29;95.97;101651.94;5021346;28;19913;-55
2023/08/13 05:46:56;;;;;;;;;;;;;;;15.30;96.39;101648.44;5021458;28;20135;-55
2023/08/13 05:49:21;;;;;;;;;;;;;;;15.33;96.72;101646.75;5022350;28;19916;-54
2023/08/13 05:51:48;;;;;;;;;;;;;;;15.35;97.83;101656.41;5021921;28;19909;-54
2023/08/13 05:54:13;;;;;;;;;;;;;;;15.39;97.50;101654.72;5021981;28;19905;-55
2023/08/13 05:56:38;;;;;;;;;;;;;;;15.40;97.84;101662.63;5021431;28;19909;-55
2023/08/13 05:59:04;;;;;;;;;;;;;;;15.43;97.99;101652.16;5022481;28;19905;-56
2023/08/13 06:01:29;;;;;;;;;;;;;;;15.50;97.19;101657.50;5021106;28;19910;-55
2023/08/13 06:03:54;;;;;;;;;;;;;;;15.53;98.93;101658.44;5022422;28;20083;-55
2023/08/13 06:06:20;;;;;;;;;;;;;;;15.57;97.89;101655.03;5022442;28;19913;-55
2023/08/13 06:08:46;;;;;;;;;;;;;;;15.63;98.00;101659.50;5022256;28;20181;-55
2023/08/13 06:11:12;;;;;;;;;;;;;;;15.68;97.78;101656.94;5021935;28;19925;-54
2023/08/13 06:13:38;;;;;;;;;;;;;;;15.73;98.10;101658.78;5022705;28;20044;-55
2023/08/13 06:16:04;;;;;;;;;;;;;;;15.78;97.99;101658.84;5021580;28;19913;-55
2023/08/13 06:18:29;;;;;;;;;;;;;;;15.84;97.78;101658.06;5020491;28;19948;-55
2023/08/13 06:20:55;;;;;;;;;;;;;;;15.91;97.78;101671.31;5022042;28;19913;-54
2023/08/13 06:23:20;;;;;;;;;;;;;;;15.98;98.48;101664.41;5022378;28;19941;-55
2023/08/13 06:25:46;;;;;;;;;;;;;;;16.03;97.36;101667.97;5022255;28;20167;-54
2023/08/13 06:28:12;;;;;;;;;;;;;;;16.11;97.89;101668.97;5024659;28;20040;-55
2023/08/13 06:30:37;;;;;;;;;;;;;;;16.17;98.59;101655.03;5023792;28;19912;-55
2023/08/13 06:33:03;;;;;;;;;;;;;;;16.24;97.10;101664.78;5032508;28;19909;-55
2023/08/13 06:35:28;;;;;;;;;;;;;;;16.29;98.36;101656.94;5015909;28;20102;-55
2023/08/13 06:37:54;;;;;;;;;;;;;;;16.33;97.42;101664.00;5027037;28;20013;-54
2023/08/13 06:40:19;;;;;;;;;;;;;;;16.35;97.07;101662.28;5018293;28;19905;-55
2023/08/13 06:42:44;;;;;;;;;;;;;;;16.42;97.75;101658.00;5032563;28;20170;-55
2023/08/13 06:45:09;;;;;;;;;;;;;;;16.48;96.41;101658.97;5021944;28;19915;-55
2023/08/13 06:47:35;;;;;;;;;;;;;;;16.57;97.69;101662.53;5019425;28;20098;-54
2023/08/13 06:50:00;;;;;;;;;;;;;;;16.64;96.63;101673.19;5019201;28;20162;-55
2023/08/13 06:52:25;;;;;;;;;;;;;;;16.69;97.33;101667.97;5019800;28;20170;-55
2023/08/13 06:54:50;;;;;;;;;;;;;;;16.75;97.06;101668.03;5022179;28;19905;-55
2023/08/13 06:57:15;;;;;;;;;;;;;;;16.78;97.07;101661.91;5020766;28;19916;-55
2023/08/13 06:59:41;;;;;;;;;;;;;;;16.81;96.39;101660.19;5022665;28;20150;-55
2023/08/13 07:02:06;;;;;;;;;;;;;;;16.85;96.33;101659.38;5023393;28;19932;-55
2023/08/13 07:04:31;;;;;;;;;;;;;;;16.92;97.27;101654.22;5033671;28;19909;-55
2023/08/13 07:06:57;;;;;;;;;;;;;;;16.98;95.88;101651.66;5028160;28;19913;-55
2023/08/13 07:09:24;;;;;;;;;;;;;;;17.04;96.64;101655.19;5034412;28;20220;-55
2023/08/13 07:11:49;;;;;;;;;;;;;;;17.12;96.89;101654.38;5024402;28;19905;-54
2023/08/13 07:14:14;;;;;;;;;;;;;;;17.19;96.20;101650.94;5030274;28;19948;-54
2023/08/13 07:16:40;;;;;;;;;;;;;;;17.26;95.90;101649.25;5029288;28;19980;-55
2023/08/13 07:19:05;;;;;;;;;;;;;;;17.33;95.19;101645.81;5027686;28;20137;-55
2023/08/13 07:21:30;;;;;;;;;;;;;;;17.41;95.62;101645.88;5024530;28;19909;-55
2023/08/13 07:23:55;;;;;;;;;;;;;;;17.47;95.97;101641.53;5028438;28;19952;-55
2023/08/13 07:26:20;;;;;;;;;;;;;;;17.57;95.62;101650.41;5027691;28;20158;-55
2023/08/13 07:28:46;;;;;;;;;;;;;;;17.66;95.89;101649.59;5023933;28;20024;-55
2023/08/13 07:31:11;;;;;;;;;;;;;;;17.74;95.34;101661.06;5024860;28;20074;-55
2023/08/13 07:33:36;;;;;;;;;;;;;;;17.80;95.31;101650.56;5019690;28;19921;-55
2023/08/13 07:36:02;;;;;;;;;;;;;;;17.87;94.98;101655.00;5021596;28;20179;-55
2023/08/13 07:38:28;;;;;;;;;;;;;;;17.96;95.99;101653.31;5018090;28;19936;-55
2023/08/13 07:40:55;;;;;;;;;;;;;;;18.04;94.59;101654.25;5025515;28;19912;-56
2023/08/13 07:43:20;;;;;;;;;;;;;;;18.14;94.27;101653.44;5034355;28;19909;-55
2023/08/13 07:45:45;;;;;;;;;;;;;;;18.24;94.03;101652.59;5027851;28;20066;-55
2023/08/13 07:48:11;;;;;;;;;;;;;;;18.34;93.78;101655.28;5023785;28;19910;-56
2023/08/13 07:50:36;;;;;;;;;;;;;;;18.41;93.40;101657.09;5023841;28;19909;-55
2023/08/13 07:53:01;;;;;;;;;;;;;;;18.51;93.55;101650.97;5022351;28;20068;-56
2023/08/13 07:55:26;;;;;;;;;;;;;;;18.59;93.79;101651.84;5023141;28;19917;-56
2023/08/13 07:57:51;;;;;;;;;;;;;;;18.68;93.53;101653.63;5006504;28;19921;-55
2023/08/13 08:00:17;;;;;;;;;;;;;;;18.76;93.31;101643.13;5022807;28;19909;-56
2023/08/13 08:02:42;;;;;;;;;;;;;;;18.86;92.75;101639.66;5024911;28;20070;-55
2023/08/13 08:05:08;;;;;;;;;;;;;;;18.93;92.23;101638.78;5021725;28;19984;-55
2023/08/13 08:07:34;;;;;;;;;;;;;;;19.01;91.97;101637.91;5023235;28;20199;-56
2023/08/13 08:10:00;;;;;;;;;;;;;;;19.11;91.80;101634.41;5023915;28;19929;-55
2023/08/13 08:12:25;;;;;;;;;;;;;;;19.22;91.46;101643.22;5024159;28;19937;-57
2023/08/13 08:14:50;;;;;;;;;;;;;;;19.32;90.75;101640.56;5022388;28;19909;-56
2023/08/13 08:17:15;;;;;;;;;;;;;;;19.39;89.96;101643.22;5022423;28;19913;-56
2023/08/13 08:19:40;;;;;;;;;;;;;;;19.43;90.48;101641.47;5026853;28;20101;-56
2023/08/13 08:22:05;;;;;;;;;;;;;;;19.46;90.63;101637.06;5028116;28;19981;-55
2023/08/13 08:24:31;;;;;;;;;;;;;;;19.53;90.37;101640.56;5027665;28;19909;-55
2023/08/13 08:26:56;;;;;;;;;;;;;;;19.58;90.08;101635.25;5001878;28;19948;-56
2023/08/13 08:29:21;;;;;;;;;;;;;;;19.62;89.59;101637.03;5020819;28;19916;-56
2023/08/13 08:31:46;;;;;;;;;;;;;;;19.64;89.47;101635.28;5022971;28;19932;-55
2023/08/13 08:34:11;;;;;;;;;;;;;;;19.70;89.55;101637.03;5024020;28;20087;-55
2023/08/13 08:36:37;;;;;;;;;;;;;;;19.72;89.54;101637.91;5023627;28;19916;-55
2023/08/13 08:39:03;;;;;;;;;;;;;;;19.73;87.96;101637.03;5020238;28;20158;-55
2023/08/13 08:41:30;;;;;;;;;;;;;;;19.71;87.55;101634.38;5015225;28;19910;-56
2023/08/13 08:43:58;;;;;;;;;;;;;;;19.73;87.80;101629.97;5023594;28;19941;-56
2023/08/13 08:46:26;;;;;;;;;;;;;;;19.75;87.04;101635.25;5021610;28;19905;-56
2023/08/13 08:48:51;;;;;;;;;;;;;;;19.77;84.94;101630.84;5024238;28;19909;-56
2023/08/13 08:51:17;;;;;;;;;;;;;;;19.77;86.81;101630.84;5024486;28;19912;-55
2023/08/13 08:53:43;;;;;;;;;;;;;;;19.83;87.20;101635.25;5023163;28;19997;-55
2023/08/13 08:56:08;;;;;;;;;;;;;;;19.89;86.66;101625.56;5024543;28;19905;-56
2023/08/13 08:58:34;;;;;;;;;;;;;;;19.95;87.12;101630.81;5023832;28;19917;-56
2023/08/13 09:01:02;;;;;;;;;;;;;;;20.08;85.25;101630.81;5024229;28;19973;-56
2023/08/13 09:03:27;;;;;;;;;;;;;;;20.21;85.13;101621.91;5024035;28;19910;-56
2023/08/13 09:05:53;;;;;;;;;;;;;;;20.33;84.08;101621.88;5024277;28;19967;-56
2023/08/13 09:08:19;;;;;;;;;;;;;;;20.39;83.57;101614.78;5024198;28;19924;-55
2023/08/13 09:10:44;;;;;;;;;;;;;;;20.45;84.23;101613.00;5021688;28;19932;-54
2023/08/13 09:13:09;;;;;;;;;;;;;;;20.52;82.85;101616.47;5022335;28;19916;-55
2023/08/13 09:15:38;;;;;;;;;;;;;;;20.58;83.36;101605.88;5022791;28;19932;-55
2023/08/13 09:18:05;;;;;;;;;;;;;;;20.65;82.04;101604.03;5023989;28;20194;-56
2023/08/13 09:20:30;;;;;;;;;;;;;;;20.61;79.08;101603.19;5024117;28;19924;-56
2023/08/13 09:22:58;;;;;;;;;;;;;;;20.60;80.16;101603.22;5022330;28;19909;-55
2023/08/13 09:25:24;;;;;;;;;;;;;;;20.68;79.76;101604.06;5005697;28;19929;-55
2023/08/13 09:27:49;;;;;;;;;;;;;;;20.82;79.98;101596.91;5021853;28;20070;-56
2023/08/13 09:30:27;;;;;;;;;;;;;;;20.98;78.34;101591.50;5023719;28;20044;-56
2023/08/13 09:32:53;;;;;;;;;;;;;;;20.98;78.02;101595.03;5023323;28;19917;-55
2023/08/13 09:35:18;;;;;;;;;;;;;;;20.95;78.73;101594.19;5023686;28;19925;-55
2023/08/13 09:37:43;;;;;;;;;;;;;;;20.93;76.98;101591.53;5023149;28;19951;-55
2023/08/13 09:40:09;;;;;;;;;;;;;;;21.02;78.50;101580.88;5022804;28;19933;-55
2023/08/13 09:42:35;;;;;;;;;;;;;;;21.19;77.93;101588.69;5023582;28;19910;-55
2023/08/13 09:45:05;;;;;;;;;;;;;;;21.34;76.12;101586.78;5023400;28;19909;-55
2023/08/13 09:47:32;;;;;;;;;;;;;;;21.42;75.61;101581.41;5022334;28;19910;-55
2023/08/13 09:49:58;;;;;;;;;;;;;;;21.44;76.08;101575.19;5002467;28;19921;-55
2023/08/13 09:52:25;;;;;;;;;;;;;;;21.50;75.09;101584.88;5016819;28;19909;-55
2023/08/13 09:55:03;;;;;;;;;;;;;;;21.58;72.99;101579.50;5023382;28;19905;-55
2023/08/13 09:57:31;;;;;;;;;;;;;;;21.53;73.28;101574.25;5022650;28;19909;-55
2023/08/13 09:59:57;;;;;;;;;;;;;;;21.50;74.00;101572.47;5023369;28;19925;-56
2023/08/13 10:02:23;;;;;;;;;;;;;;;21.59;74.30;101575.97;5022671;28;19973;-56
2023/08/13 10:04:49;;;;;;;;;;;;;;;21.68;72.74;101568.81;5019500;28;19909;-55
2023/08/13 10:07:15;;;;;;;;;;;;;;;21.66;70.97;101565.25;5022643;28;20024;-55
2023/08/13 10:09:41;;;;;;;;;;;;;;;21.52;71.52;101565.44;5023563;28;19914;-55
2023/08/13 10:12:09;;;;;;;;;;;;;;;21.60;72.52;101575.09;5021631;28;19952;-56
2023/08/13 10:14:34;;;;;;;;;;;;;;;21.74;72.96;101570.50;5019218;28;19909;-55
2023/08/13 10:17:06;;;;;;;;;;;;;;;21.94;72.29;101572.94;5022509;28;19992;-55
2023/08/13 10:19:34;;;;;;;;;;;;;;;21.95;68.94;101566.69;5022774;28;19947;-55
2023/08/13 10:21:59;;;;;;;;;;;;;;;21.95;71.85;101563.19;5022049;28;19988;-55
2023/08/13 10:24:28;;;;;;;;;;;;;;;22.08;72.13;101570.09;5022229;28;19930;-55
2023/08/13 10:26:53;;;;;;;;;;;;;;;22.23;71.44;101559.28;5023567;28;19905;-55
2023/08/13 10:29:19;;;;;;;;;;;;;;;22.28;70.46;101561.00;5021958;28;19916;-56
2023/08/13 10:32:05;;;;;;;;;;;;;;;22.30;69.91;101560.06;5023004;28;20036;-55
2023/08/13 10:34:53;;;;;;;;;;;;;;;22.21;70.10;101557.53;5005852;28;19975;-56
2023/08/13 10:37:19;;;;;;;;;;;;;;;22.17;71.63;101553.16;5008281;28;19948;-55
2023/08/13 10:39:46;;;;;;;;;;;;;;;22.16;72.79;101548.75;5026359;28;19929;-54
2023/08/13 10:42:26;;;;;;;;;;;;;;;22.17;73.15;101558.47;5026721;28;20063;-55
2023/08/13 10:44:52;;;;;;;;;;;;;;;22.27;72.95;101554.78;5027194;28;20051;-56
2023/08/13 10:47:17;;;;;;;;;;;;;;;22.43;71.53;101555.47;5026009;28;19909;-55
2023/08/13 10:49:42;;;;;;;;;;;;;;;22.56;70.71;101553.53;5026749;28;19909;-55
2023/08/13 10:52:07;;;;;;;;;;;;;;;22.73;69.81;101551.50;5025896;28;19932;-55
2023/08/13 10:54:33;;;;;;;;;;;;;;;22.89;69.94;101546.81;5025844;28;19940;-55
2023/08/13 10:56:58;;;;;;;;;;;;;;;23.03;70.73;101549.25;5026495;28;19906;-55
2023/08/13 10:59:30;;;;;;;;;;;;;;;23.20;69.38;101535.69;5026488;28;19972;-56
2023/08/13 11:02:10;;;;;;;;;;;;;;;23.40;69.08;101537.09;5025614;28;19910;-56
2023/08/13 11:04:36;;;;;;;;;;;;;;;23.65;69.89;101537.50;5023261;28;19910;-56
2023/08/13 11:07:01;;;;;;;;;;;;;;;23.90;66.49;101545.03;5024780;28;19921;-56
2023/08/13 11:09:28;;;;;;;;;;;;;;;23.79;65.53;101540.75;5026250;28;19909;-56
2023/08/13 11:11:54;;;;;;;;;;;;;;;23.69;66.55;101530.31;5008737;28;19905;-56
2023/08/13 11:14:19;;;;;;;;;;;;;;;23.73;67.86;101540.00;5022992;28;19932;-56
2023/08/13 11:16:47;;;;;;;;;;;;;;;23.81;67.65;101540.75;5024224;28;19932;-56
2023/08/13 11:19:12;;;;;;;;;;;;;;;23.89;67.97;101535.28;5026129;28;19905;-56
2023/08/13 11:21:37;;;;;;;;;;;;;;;23.91;66.86;101541.44;5026346;28;19937;-55
2023/08/13 11:24:04;;;;;;;;;;;;;;;23.90;65.54;101537.03;5026197;28;19905;-56
2023/08/13 11:26:29;;;;;;;;;;;;;;;23.90;62.74;101537.03;5023273;28;19985;-55
2023/08/13 11:28:57;;;;;;;;;;;;;;;23.74;64.49;101529.34;5025367;28;20058;-56
2023/08/13 11:31:23;;;;;;;;;;;;;;;23.83;64.64;101540.69;5026011;28;19932;-56
2023/08/13 11:33:49;;;;;;;;;;;;;;;23.93;62.94;101539.63;5024686;28;19932;-56
2023/08/13 11:36:14;;;;;;;;;;;;;;;23.73;64.44;101532.88;5025391;28;20074;-56
2023/08/13 11:38:39;;;;;;;;;;;;;;;23.57;63.63;101548.28;5025796;28;19976;-56
2023/08/13 11:41:11;;;;;;;;;;;;;;;23.53;63.76;101541.25;5025724;28;19909;-56
2023/08/13 11:43:36;;;;;;;;;;;;;;;23.60;64.31;101534.06;5026308;28;19905;-56
2023/08/13 11:46:03;;;;;;;;;;;;;;;23.73;65.59;101530.22;5024187;28;19948;-56
2023/08/13 11:48:30;;;;;;;;;;;;;;;23.96;65.41;101527.13;5024096;28;20093;-56
2023/08/13 11:50:56;;;;;;;;;;;;;;;24.17;65.24;101526.69;5018876;28;19926;-56
2023/08/13 11:53:22;;;;;;;;;;;;;;;24.23;64.58;101521.22;5022616;28;19976;-56
2023/08/13 11:55:48;;;;;;;;;;;;;;;24.23;64.48;101522.13;5025047;28;19924;-55
2023/08/13 11:58:17;;;;;;;;;;;;;;;24.45;62.56;101511.81;5026494;28;19909;-55
2023/08/13 12:00:43;;;;;;;;;;;;;;;24.53;62.70;101513.44;5025486;28;19909;-57
2023/08/13 12:03:08;;;;;;;;;;;;;;;24.56;63.54;101516.03;5024650;28;19932;-56
2023/08/13 12:05:34;;;;;;;;;;;;;;;24.64;63.49;101503.44;5024734;28;20113;-56
2023/08/13 12:08:04;;;;;;;;;;;;;;;24.70;62.82;101505.06;5025484;28;19906;-56
2023/08/13 12:10:30;;;;;;;;;;;;;;;24.75;60.63;101508.47;5024730;28;20048;-56
2023/08/13 12:12:55;;;;;;;;;;;;;;;24.82;59.38;101510.97;5006994;28;19952;-56
2023/08/13 12:15:23;;;;;;;;;;;;;;;24.81;59.57;101511.00;5023645;28;19909;-56
2023/08/13 12:17:48;;;;;;;;;;;;;;;24.72;62.08;101508.56;5022698;28;19932;-56
2023/08/13 12:20:14;;;;;;;;;;;;;;;24.62;62.03;101507.91;5023872;28;19909;-55
2023/08/13 12:22:39;;;;;;;;;;;;;;;24.58;62.29;101506.22;5024761;28;19905;-56
2023/08/13 12:25:05;;;;;;;;;;;;;;;24.50;61.38;101509.06;5023709;28;19906;-57
2023/08/13 12:27:31;;;;;;;;;;;;;;;24.40;61.01;101503.06;5024112;28;19935;-55
2023/08/13 12:29:56;;;;;;;;;;;;;;;24.30;62.08;101502.41;5024539;28;20218;-55